Time;durP1;ratioP1;P1;durP2;ratioP2;P2;SDS_P1;SDS_P2;PMS_P1;PMS_P2;Temp;Humidity;BMP_temperature;BMP_pressure;BME280_temperature;BME280_humidity;BME280_pressure;Samples;Min_cycle;Max_cycle;Signal;HPM_P1;HPM_P2
2023/06/03 00:00:37;;;;;;;1.23;0.95;;;;;;;26.95;30.42;100786.75;7397554;19;20090;-62
2023/06/03 00:03:03;;;;;;;4.22;0.63;;;;;;;26.75;30.64;100790.50;7398116;19;20011;-62
2023/06/03 00:05:29;;;;;;;0.52;0.32;;;;;;;26.71;30.58;100784.34;7401242;19;20089;-62
2023/06/03 00:07:55;;;;;;;6.07;1.20;;;;;;;26.61;30.83;100780.53;7394986;19;20035;-62
2023/06/03 00:10:22;;;;;;;0.40;0.40;;;;;;;26.69;31.06;100774.81;7394581;19;20014;-62
2023/06/03 00:12:48;;;;;;;0.65;0.50;;;;;;;26.88;30.87;100784.63;7397351;19;20039;-62
2023/06/03 00:15:14;;;;;;;0.60;0.60;;;;;;;26.77;31.12;100776.41;7399584;19;20011;-62
2023/06/03 00:17:40;;;;;;;5.35;0.85;;;;;;;26.73;30.87;100780.97;7396857;19;20070;-62
2023/06/03 00:20:06;;;;;;;8.10;1.55;;;;;;;26.45;31.23;100778.91;7397194;19;20024;-62
2023/06/03 00:22:39;;;;;;;1.95;1.58;;;;;;;26.38;31.29;100773.94;7396168;19;20455;-62
2023/06/03 00:25:11;;;;;;;1.13;0.85;;;;;;;26.31;31.34;100780.38;7399480;19;20022;-62
2023/06/03 00:27:38;;;;;;;1.60;1.13;;;;;;;26.09;31.30;100778.16;7397147;19;20010;-62
2023/06/03 00:30:06;;;;;;;2.28;0.75;;;;;;;26.05;31.46;100777.72;7395715;19;20014;-62
2023/06/03 00:32:33;;;;;;;0.70;0.70;;;;;;;26.65;30.63;100786.63;7395974;19;20058;-62
2023/06/03 00:34:59;;;;;;;1.30;1.20;;;;;;;26.79;30.41;100779.44;7399486;19;20030;-62
2023/06/03 00:37:26;;;;;;;0.40;0.40;;;;;;;26.72;30.44;100779.41;7394450;19;20140;-62
2023/06/03 00:39:52;;;;;;;1.73;0.95;;;;;;;26.76;30.30;100768.41;7395115;19;20017;-62
2023/06/03 00:42:18;;;;;;;0.85;0.85;;;;;;;26.70;30.81;100770.66;7394643;19;20011;-62
2023/06/03 00:44:44;;;;;;;1.00;0.93;;;;;;;26.87;30.75;100774.53;7398211;19;20459;-62
2023/06/03 00:47:10;;;;;;;0.50;0.50;;;;;;;26.85;30.41;100771.50;7396250;19;20019;-61
2023/06/03 00:49:38;;;;;;;0.63;0.63;;;;;;;26.84;30.30;100775.66;7395214;19;20007;-62
2023/06/03 00:52:06;;;;;;;1.60;1.15;;;;;;;26.82;30.67;100778.34;7395804;19;20087;-62
2023/06/03 00:54:33;;;;;;;0.82;0.82;;;;;;;26.83;30.47;100784.81;7397977;19;20022;-62
2023/06/03 00:57:02;;;;;;;2.72;0.30;;;;;;;26.81;30.36;100782.50;7396826;19;20021;-61
2023/06/03 00:59:28;;;;;;;3.05;1.35;;;;;;;26.31;30.76;100791.81;7393580;19;20006;-61
2023/06/03 01:01:54;;;;;;;0.40;0.40;;;;;;;26.02;31.26;100787.41;7392491;19;20419;-61
2023/06/03 01:04:25;;;;;;;3.83;1.48;;;;;;;26.16;31.30;100774.59;7396587;19;20066;-61
2023/06/03 01:07:05;;;;;;;1.80;1.30;;;;;;;26.10;30.89;100785.38;7395719;19;20042;-61
2023/06/03 01:09:59;;;;;;;2.00;0.97;;;;;;;26.12;30.78;100791.28;7396009;19;20015;-61
2023/06/03 01:12:51;;;;;;;1.33;0.85;;;;;;;26.15;31.35;100781.63;7394754;19;20228;-61
2023/06/03 01:15:27;;;;;;;6.57;1.35;;;;;;;26.34;30.89;100796.38;7398268;19;20031;-61
2023/06/03 01:17:57;;;;;;;12.13;0.98;;;;;;;26.13;31.01;100787.13;7392664;19;20018;-61
2023/06/03 01:20:26;;;;;;;1.55;0.77;;;;;;;26.16;31.64;100791.72;7393929;19;20018;-61
2023/06/03 01:23:00;;;;;;;0.60;0.60;;;;;;;26.25;31.33;100776.91;7395424;19;20018;-61
2023/06/03 01:25:28;;;;;;;1.27;1.17;;;;;;;26.23;31.41;100779.56;7398824;19;20017;-61
2023/06/03 01:27:57;;;;;;;5.43;1.35;;;;;;;26.28;30.91;100782.28;7393546;19;20014;-61
2023/06/03 01:30:23;;;;;;;1.02;0.93;;;;;;;26.36;31.04;100781.56;7392732;19;20046;-61
2023/06/03 01:32:50;;;;;;;2.05;1.25;;;;;;;26.54;31.05;100792.69;7393451;19;20458;-61
2023/06/03 01:35:18;;;;;;;3.83;0.60;;;;;;;26.52;30.85;100786.75;7397728;19;20017;-61
2023/06/03 01:37:45;;;;;;;12.38;0.50;;;;;;;27.00;30.61;100794.41;7392297;19;20403;-61
2023/06/03 01:40:12;;;;;;;1.23;1.13;;;;;;;26.46;30.85;100791.13;7392544;19;20011;-61
2023/06/03 01:42:38;;;;;;;0.45;0.45;;;;;;;26.35;31.45;100786.50;7393941;19;20027;-61
2023/06/03 01:45:06;;;;;;;0.77;0.47;;;;;;;26.28;31.62;100781.50;7396273;19;20014;-61
2023/06/03 01:47:34;;;;;;;1.35;0.95;;;;;;;26.36;31.69;100776.59;7393334;19;20023;-61
2023/06/03 01:50:00;;;;;;;1.10;1.10;;;;;;;26.55;31.40;100779.16;7394020;19;20022;-61
2023/06/03 01:52:28;;;;;;;0.55;0.55;;;;;;;26.67;31.89;100774.63;7392998;19;20074;-60
2023/06/03 01:54:54;;;;;;;1.00;0.65;;;;;;;26.59;31.60;100771.75;7397428;19;20482;-61
2023/06/03 01:57:20;;;;;;;5.90;2.08;;;;;;;26.50;32.13;100769.44;7396384;19;20031;-61
2023/06/03 01:59:47;;;;;;;1.00;0.70;;;;;;;26.40;31.65;100776.25;7393930;19;20011;-61
2023/06/03 02:02:13;;;;;;;9.23;1.35;;;;;;;26.30;32.04;100778.84;7392377;19;20011;-61
2023/06/03 02:04:39;;;;;;;1.38;0.77;;;;;;;26.31;32.52;100774.69;7395312;19;20073;-61
2023/06/03 02:07:06;;;;;;;5.68;1.30;;;;;;;26.46;32.37;100768.25;7392570;19;20017;-61
2023/06/03 02:09:32;;;;;;;2.67;1.73;;;;;;;26.78;31.70;100771.44;7391747;19;20018;-61
2023/06/03 02:12:00;;;;;;;1.85;1.23;;;;;;;26.73;31.64;100773.16;7392048;19;20010;-61
2023/06/03 02:14:29;;;;;;;6.18;1.27;;;;;;;26.77;31.56;100778.50;7393577;19;20010;-61
2023/06/03 02:16:56;;;;;;;5.13;1.30;;;;;;;26.59;31.59;100780.31;7392701;19;20010;-61
2023/06/03 02:19:25;;;;;;;4.22;1.20;;;;;;;26.60;31.71;100778.22;7391647;19;20090;-61
2023/06/03 02:21:52;;;;;;;3.45;1.15;;;;;;;26.60;31.65;100776.13;7393971;19;20021;-61
2023/06/03 02:24:19;;;;;;;3.55;1.92;;;;;;;26.82;31.67;100786.91;7394541;19;20037;-61
2023/06/03 02:26:52;;;;;;;2.20;1.83;;;;;;;26.98;31.34;100779.13;7393612;19;20010;-61
2023/06/03 02:29:23;;;;;;;1.92;1.45;;;;;;;26.89;31.51;100776.81;7392950;19;20015;-60
2023/06/03 02:31:50;;;;;;;1.88;1.65;;;;;;;26.53;31.63;100773.25;7391253;19;20022;-61
2023/06/03 02:34:19;;;;;;;8.00;1.75;;;;;;;26.48;31.92;100763.50;7393606;19;20018;-61
2023/06/03 02:36:46;;;;;;;2.05;0.90;;;;;;;26.25;32.32;100771.19;7391586;19;20432;-61
2023/06/03 02:39:14;;;;;;;2.25;2.05;;;;;;;25.99;32.06;100768.56;7391714;19;20029;-61
2023/06/03 02:41:41;;;;;;;1.20;1.10;;;;;;;25.64;33.06;100769.25;7391018;19;20019;-61
2023/06/03 02:44:08;;;;;;;2.28;1.20;;;;;;;25.49;32.53;100770.66;7393184;19;20026;-61
2023/06/03 02:46:35;;;;;;;1.23;1.00;;;;;;;25.40;33.04;100773.97;7398414;19;20406;-61
2023/06/03 02:49:06;;;;;;;14.43;1.38;;;;;;;25.19;33.01;100766.72;7397437;19;20025;-61
2023/06/03 02:51:33;;;;;;;14.77;1.75;;;;;;;23.51;35.42;100782.13;7396868;19;20014;-61
2023/06/03 02:53:59;;;;;;;3.45;2.20;;;;;;;24.83;33.29;100778.75;7401096;19;20568;-61
2023/06/03 02:56:26;;;;;;;9.20;1.40;;;;;;;25.17;33.26;100778.69;7400604;19;20035;-61
2023/06/03 02:58:54;;;;;;;5.75;1.83;;;;;;;25.08;33.19;100778.44;7398196;19;20015;-60
2023/06/03 03:01:21;;;;;;;2.03;1.73;;;;;;;24.98;33.33;100786.69;7398095;19;20017;-61
2023/06/03 03:03:48;;;;;;;6.70;1.05;;;;;;;24.95;33.50;100793.47;7399089;19;20371;-61
2023/06/03 03:06:37;;;;;;;1.75;1.00;;;;;;;25.31;33.58;100791.59;7397951;19;20349;-61
2023/06/03 03:09:01;;;;;;;3.50;2.20;;;;;;;25.49;33.06;100787.78;7397950;19;20022;-60
2023/06/03 03:11:33;;;;;;;2.10;1.33;;;;;;;25.92;32.97;100794.97;7397829;19;20024;-61
2023/06/03 03:14:00;;;;;;;1.25;1.15;;;;;;;25.99;32.74;100791.41;7400670;19;20039;-61
2023/06/03 03:16:28;;;;;;;3.67;1.15;;;;;;;26.00;33.11;100802.25;7397932;19;20022;-61
2023/06/03 03:18:57;;;;;;;2.17;1.98;;;;;;;26.06;33.45;100799.22;7397623;19;20462;-61
2023/06/03 03:21:23;;;;;;;1.33;1.23;;;;;;;26.15;32.87;100799.53;7399202;19;20107;-61
2023/06/03 03:23:50;;;;;;;3.85;0.90;;;;;;;26.17;33.34;100793.25;7398845;19;20015;-61
2023/06/03 03:26:21;;;;;;;2.65;1.02;;;;;;;26.39;33.38;100797.56;7398834;19;20023;-61
2023/06/03 03:28:47;;;;;;;;;;;;;;;26.55;33.36;100794.19;7400327;19;20035;-61
2023/06/03 03:31:14;;;;;;;3.70;1.50;;;;;;;26.57;33.25;100796.50;7395799;19;19918;-61
2023/06/03 03:33:41;;;;;;;10.10;1.30;;;;;;;26.73;33.26;100793.16;7397392;19;20459;-62
2023/06/03 03:36:20;;;;;;;6.38;1.33;;;;;;;26.72;33.24;100803.06;7398605;19;20479;-62
2023/06/03 03:39:01;;;;;;;0.98;0.98;;;;;;;26.95;33.08;100791.69;7397470;19;20014;-62
2023/06/03 03:41:30;;;;;;;11.10;1.35;;;;;;;26.90;33.27;100793.41;7397157;19;20018;-62
2023/06/03 03:43:57;;;;;;;2.47;1.02;;;;;;;26.86;33.23;100795.88;7398166;19;20015;-62
2023/06/03 03:46:24;;;;;;;2.15;1.35;;;;;;;26.66;33.33;100799.56;7396534;19;20029;-62
2023/06/03 03:48:50;;;;;;;5.68;2.65;;;;;;;26.38;33.45;100790.31;7395747;19;20030;-62
2023/06/03 03:51:17;;;;;;;3.28;1.38;;;;;;;26.50;33.72;100786.56;7394970;19;20025;-62
2023/06/03 03:53:45;;;;;;;2.72;1.60;;;;;;;26.46;34.01;100794.75;7398541;19;20121;-62
2023/06/03 03:56:20;;;;;;;16.35;1.42;;;;;;;27.38;33.16;100787.97;7396452;19;20022;-62
2023/06/03 03:58:50;;;;;;;2.55;1.67;;;;;;;27.37;32.68;100786.47;7396795;19;20019;-62
2023/06/03 04:01:23;;;;;;;2.35;1.65;;;;;;;27.94;32.50;100787.59;7397805;19;20014;-62
2023/06/03 04:03:55;;;;;;;9.65;1.42;;;;;;;28.22;31.96;100784.50;7397187;19;20014;-62
2023/06/03 04:06:32;;;;;;;1.10;1.00;;;;;;;28.81;31.51;100781.22;7396184;19;20038;-62
2023/06/03 04:09:00;;;;;;;4.68;1.10;;;;;;;29.18;30.66;100780.28;7397695;19;20011;-63
2023/06/03 04:11:27;;;;;;;1.42;0.95;;;;;;;29.12;30.87;100776.84;7396617;19;20459;-62
2023/06/03 04:13:58;;;;;;;2.92;1.65;;;;;;;28.68;31.40;100776.53;7398313;19;20011;-62
2023/06/03 04:16:41;;;;;;;4.10;0.93;;;;;;;28.02;31.61;100776.94;7395814;19;20006;-62
2023/06/03 04:19:20;;;;;;;20.20;1.53;;;;;;;27.83;32.05;100787.97;7394880;19;20467;-62
2023/06/03 04:21:47;;;;;;;0.63;0.57;;;;;;;27.87;31.69;100790.47;7395207;19;20010;-62
2023/06/03 04:24:13;;;;;;;0.70;0.70;;;;;;;27.76;31.84;100788.78;7397116;19;20011;-62
2023/06/03 04:26:41;;;;;;;2.00;1.60;;;;;;;28.25;31.48;100791.19;7395509;19;20348;-61
2023/06/03 04:29:08;;;;;;;4.32;1.70;;;;;;;28.41;31.12;100789.81;7395351;19;20018;-62
2023/06/03 04:31:34;;;;;;;2.95;1.25;;;;;;;28.21;31.26;100800.19;7394078;19;20033;-62
2023/06/03 04:34:01;;;;;;;0.68;0.68;;;;;;;28.25;31.54;100791.94;7396018;19;20344;-61
2023/06/03 04:36:28;;;;;;;3.10;1.30;;;;;;;27.37;32.66;100795.81;7395079;19;20022;-62
2023/06/03 04:38:54;;;;;;;4.72;1.13;;;;;;;27.12;32.44;100794.03;7396749;19;20074;-62
2023/06/03 04:41:20;;;;;;;1.80;1.08;;;;;;;26.92;32.29;100796.44;7394789;19;20064;-62
2023/06/03 04:43:47;;;;;;;4.95;0.90;;;;;;;26.71;32.54;100795.78;7395459;19;20022;-62
2023/06/03 04:46:16;;;;;;;1.83;1.00;;;;;;;26.68;32.49;100791.19;7394998;19;20035;-62
2023/06/03 04:48:45;;;;;;;6.70;1.42;;;;;;;26.70;32.58;100788.56;7394646;19;20020;-62
2023/06/03 04:51:11;;;;;;;4.30;1.85;;;;;;;26.57;32.65;100794.41;7393654;19;20494;-62
2023/06/03 04:53:40;;;;;;;1.60;1.23;;;;;;;26.46;32.86;100791.88;7395353;19;20351;-62
2023/06/03 04:56:08;;;;;;;1.77;1.23;;;;;;;26.41;32.46;100789.19;7395555;19;20447;-62
2023/06/03 04:58:40;;;;;;;7.10;1.33;;;;;;;26.31;32.36;100798.28;7394150;19;20014;-62
2023/06/03 05:01:08;;;;;;;1.20;1.20;;;;;;;26.33;32.89;100797.72;7393930;19;20011;-62
2023/06/03 05:03:38;;;;;;;15.07;1.73;;;;;;;26.33;32.41;100805.53;7394484;19;20085;-61
2023/06/03 05:06:10;;;;;;;1.58;1.48;;;;;;;26.29;32.71;100803.03;7393327;19;20014;-62
2023/06/03 05:08:40;;;;;;;2.42;1.38;;;;;;;27.10;31.80;100808.13;7393613;19;20066;-61
2023/06/03 05:11:07;;;;;;;5.15;1.20;;;;;;;27.29;31.75;100797.88;7393092;19;20014;-62
2023/06/03 05:13:34;;;;;;;11.10;1.40;;;;;;;27.22;31.65;100789.28;7393590;19;20075;-62
2023/06/03 05:16:01;;;;;;;9.90;1.65;;;;;;;27.81;31.28;100789.91;7394570;19;20354;-62
2023/06/03 05:18:27;;;;;;;0.55;0.55;;;;;;;28.00;31.16;100785.34;7393529;19;20391;-62
2023/06/03 05:20:53;;;;;;;2.50;1.67;;;;;;;28.23;30.72;100793.88;7393936;19;20011;-62
2023/06/03 05:23:19;;;;;;;2.35;1.42;;;;;;;28.18;30.73;100795.59;7394834;19;20031;-62
2023/06/03 05:25:47;;;;;;;1.08;0.98;;;;;;;28.18;30.85;100804.19;7393541;19;20014;-62
2023/06/03 05:28:14;;;;;;;0.93;0.93;;;;;;;27.81;31.72;100802.09;7393115;19;20010;-62
2023/06/03 05:30:40;;;;;;;4.85;2.35;;;;;;;28.00;31.40;100801.75;7391893;19;20015;-62
2023/06/03 05:33:07;;;;;;;1.90;1.20;;;;;;;27.88;31.29;100794.84;7392494;19;20023;-62
2023/06/03 05:35:34;;;;;;;1.25;1.02;;;;;;;27.78;31.50;100791.81;7397246;19;20028;-62
2023/06/03 05:38:00;;;;;;;3.58;1.65;;;;;;;27.77;31.87;100785.31;7393434;19;20010;-62
2023/06/03 05:40:27;;;;;;;5.00;1.67;;;;;;;28.19;31.30;100791.41;7393193;19;20483;-62
2023/06/03 05:42:55;;;;;;;5.10;2.13;;;;;;;27.63;31.89;100788.97;7392747;19;20042;-62
2023/06/03 05:45:22;;;;;;;3.25;1.77;;;;;;;27.82;32.42;100782.84;7397465;19;20014;-62
2023/06/03 05:47:48;;;;;;;3.08;2.03;;;;;;;27.88;32.19;100786.25;7393206;19;20074;-62
2023/06/03 05:50:14;;;;;;;14.82;2.55;;;;;;;27.88;32.07;100778.44;7392686;19;20034;-63
2023/06/03 05:52:41;;;;;;;8.40;2.05;;;;;;;27.87;32.08;100776.16;7392832;19;20014;-62
2023/06/03 05:55:07;;;;;;;6.93;2.90;;;;;;;28.16;32.22;100781.09;7396584;19;20023;-63
2023/06/03 05:57:34;;;;;;;10.80;2.47;;;;;;;28.22;32.00;100778.03;7396144;19;20021;-63
2023/06/03 06:00:00;;;;;;;10.82;2.13;;;;;;;28.18;32.41;100784.13;7392708;19;20018;-62
2023/06/03 06:02:26;;;;;;;2.20;2.03;;;;;;;28.14;32.05;100777.25;7391875;19;20011;-62
2023/06/03 06:04:52;;;;;;;5.32;2.47;;;;;;;28.17;32.14;100790.44;7395931;19;20070;-62
2023/06/03 06:07:19;;;;;;;7.85;2.13;;;;;;;28.91;31.42;100782.16;7391379;19;20014;-63
2023/06/03 06:09:45;;;;;;;4.28;2.78;;;;;;;29.15;31.22;100782.19;7392223;19;20027;-63
2023/06/03 06:12:11;;;;;;;2.95;1.63;;;;;;;29.57;30.77;100782.28;7392867;19;20018;-62
2023/06/03 06:14:38;;;;;;;1.75;1.35;;;;;;;29.58;31.15;100783.03;7395424;19;20014;-62
2023/06/03 06:17:04;;;;;;;2.42;1.65;;;;;;;29.80;30.63;100782.13;7394551;19;20024;-62
2023/06/03 06:19:34;;;;;;;3.25;1.73;;;;;;;30.12;30.25;100772.59;7395613;19;20014;-62
2023/06/03 06:22:01;;;;;;;2.67;2.25;;;;;;;30.12;30.64;100778.34;7401355;19;20023;-63
2023/06/03 06:24:28;;;;;;;12.57;1.85;;;;;;;30.06;30.31;100772.09;7405025;19;20403;-62
2023/06/03 06:27:00;;;;;;;1.83;1.38;;;;;;;30.04;30.46;100772.66;7402376;19;20017;-61
2023/06/03 06:29:26;;;;;;;4.93;1.95;;;;;;;30.24;30.04;100762.09;7399951;19;20067;-61
2023/06/03 06:31:53;;;;;;;3.10;1.48;;;;;;;30.14;30.24;100769.88;7397050;19;20030;-62
2023/06/03 06:34:20;;;;;;;11.23;2.90;;;;;;;30.38;30.06;100771.94;7400604;19;20044;-62
2023/06/03 06:36:49;;;;;;;1.73;0.98;;;;;;;30.29;30.28;100781.22;7400248;19;20049;-63
2023/06/03 06:39:36;;;;;;;1.48;1.38;;;;;;;30.26;30.27;100773.75;7400777;19;20010;-62
2023/06/03 06:42:30;;;;;;;1.33;1.23;;;;;;;30.35;30.32;100776.75;7397364;19;20014;-62
2023/06/03 06:45:04;;;;;;;4.50;2.17;;;;;;;30.59;30.06;100772.25;7404058;19;20363;-60
2023/06/03 06:47:42;;;;;;;1.48;1.38;;;;;;;30.52;30.14;100775.97;7399284;19;20331;-60
2023/06/03 06:50:31;;;;;;;3.92;1.40;;;;;;;30.67;30.18;100776.53;7397940;19;20014;-60
2023/06/03 06:53:00;;;;;;;6.22;2.10;;;;;;;30.62;30.20;100785.44;7402189;19;20017;-62
2023/06/03 06:55:54;;;;;;;5.30;2.08;;;;;;;30.92;29.86;100781.41;7403876;19;20039;-62
2023/06/03 06:58:47;;;;;;;1.58;1.15;;;;;;;30.76;29.98;100783.72;7400246;19;20070;-63
2023/06/03 07:01:17;;;;;;;8.65;1.67;;;;;;;30.56;30.83;100779.16;7401665;19;20002;-61
2023/06/03 07:03:54;;;;;;;1.73;1.10;;;;;;;30.56;30.68;100770.53;7402085;19;20510;-60
2023/06/03 07:06:20;;;;;;;0.68;0.68;;;;;;;30.70;30.39;100769.59;7400348;19;20354;-60
2023/06/03 07:09:26;;;;;;;0.75;0.75;;;;;;;30.99;30.20;100777.69;7397269;19;20011;-60
2023/06/03 07:11:54;;;;;;;0.93;0.93;;;;;;;31.03;30.29;100780.88;7398981;19;20460;-61
2023/06/03 07:17:41;;;;;;;9.15;2.25;;;;;;;31.27;30.34;100783.56;7400730;19;20022;-62
2023/06/03 07:20:12;;;;;;;4.32;1.48;;;;;;;31.35;30.08;100787.09;7397087;19;20022;-61
2023/06/03 07:22:38;;;;;;;1.33;0.63;;;;;;;31.43;30.31;100782.00;7399641;19;20413;-81
2023/06/03 07:25:06;;;;;;;4.53;1.73;;;;;;;31.48;30.13;100788.06;7399268;19;20058;-83
2023/06/03 07:27:32;;;;;;;1.88;1.42;;;;;;;31.69;29.72;100782.53;7397332;19;20018;-81
2023/06/03 07:30:00;;;;;;;1.15;1.00;;;;;;;31.86;29.61;100770.91;7395183;19;20408;-81
2023/06/03 07:32:27;;;;;;;2.40;0.57;;;;;;;31.83;29.93;100787.28;7392177;19;20010;-82
2023/06/03 07:34:55;;;;;;;2.50;1.02;;;;;;;31.90;30.22;100782.75;7395996;19;20104;-81
2023/06/03 07:37:21;;;;;;;0.98;0.93;;;;;;;31.94;29.97;100778.09;7397103;19;20033;-81
2023/06/03 07:39:47;;;;;;;3.55;1.38;;;;;;;32.27;29.18;100781.28;7402086;19;20027;-82
2023/06/03 07:42:21;;;;;;;2.40;1.50;;;;;;;32.24;28.62;100788.28;7396910;19;20010;-82
2023/06/03 07:44:56;;;;;;;1.17;1.00;;;;;;;32.16;29.18;100790.56;7396105;19;20018;-81
2023/06/03 07:47:25;;;;;;;2.70;1.15;;;;;;;32.23;29.19;100798.28;7395016;19;20106;-81
2023/06/03 07:49:53;;;;;;;0.57;0.47;;;;;;;32.38;29.16;100786.44;7393255;19;20027;-81
2023/06/03 07:52:20;;;;;;;1.50;1.13;;;;;;;32.59;28.94;100794.53;7395087;19;20031;-81
2023/06/03 07:54:47;;;;;;;2.17;0.80;;;;;;;32.56;28.68;100790.72;7398019;19;20026;-81
2023/06/03 07:57:14;;;;;;;5.47;0.98;;;;;;;32.45;28.34;100788.41;7395264;19;20350;-81
2023/06/03 07:59:58;;;;;;;1.92;1.13;;;;;;;32.53;28.30;100786.16;7393053;19;20022;-82
2023/06/03 08:02:24;;;;;;;0.68;0.68;;;;;;;32.53;28.63;100786.16;7393321;19;20017;-82
2023/06/03 08:04:55;;;;;;;4.03;0.80;;;;;;;32.50;28.47;100793.16;7395817;19;20077;-80
2023/06/03 08:07:24;;;;;;;10.95;1.73;;;;;;;32.65;28.90;100789.97;7399419;19;20022;-82
2023/06/03 08:09:50;;;;;;;1.08;0.70;;;;;;;32.79;29.12;100793.88;7392872;19;20115;-82
2023/06/03 08:12:21;;;;;;;0.80;0.60;;;;;;;32.84;28.77;100786.28;7386568;19;20366;-82
2023/06/03 08:14:47;;;;;;;2.83;0.93;;;;;;;32.85;28.53;100788.53;7392100;19;20018;-82
2023/06/03 08:17:14;;;;;;;3.17;1.25;;;;;;;33.15;28.43;100798.69;7397557;19;20015;-82
2023/06/03 08:19:44;;;;;;;2.38;0.75;;;;;;;33.56;28.25;100796.56;7395795;19;20010;-81
2023/06/03 08:22:28;;;;;;;2.25;1.42;;;;;;;33.94;27.88;100787.66;7395015;19;20027;-80
2023/06/03 08:24:55;;;;;;;0.60;0.50;;;;;;;33.94;27.77;100779.00;7395769;19;20082;-83
2023/06/03 08:27:21;;;;;;;4.07;0.73;;;;;;;34.19;27.03;100790.13;7396495;19;20462;-81
2023/06/03 08:29:47;;;;;;;0.80;0.80;;;;;;;34.36;27.04;100784.03;7396500;19;20014;-82
2023/06/03 08:32:14;;;;;;;0.63;0.63;;;;;;;34.68;26.91;100779.66;7394159;19;20010;-83
2023/06/03 08:34:41;;;;;;;1.15;0.70;;;;;;;34.88;26.43;100778.84;7395900;19;20018;-82
2023/06/03 08:37:08;;;;;;;4.20;0.57;;;;;;;35.13;26.65;100778.28;7397864;19;20477;-82
2023/06/03 08:39:35;;;;;;;0.77;0.35;;;;;;;35.16;26.62;100782.81;7396827;19;20512;-82
2023/06/03 08:42:06;;;;;;;2.20;0.60;;;;;;;35.19;26.21;100778.69;7393549;19;20061;-81
2023/06/03 08:44:52;;;;;;;0.25;0.25;;;;;;;35.41;25.83;100774.25;7392687;19;20029;-82
2023/06/03 08:48:19;;;;;;;3.33;0.40;;;;;;;35.57;25.81;100775.31;7397802;19;20019;-83
2023/06/03 08:50:49;;;;;;;0.50;0.50;;;;;;;35.59;25.67;100783.34;7395808;19;20014;-81
2023/06/03 08:53:15;;;;;;;2.47;0.30;;;;;;;35.67;25.65;100773.00;7397011;19;20026;-82
2023/06/03 08:55:43;;;;;;;1.05;0.50;;;;;;;35.83;26.00;100772.47;7393086;19;20039;-83
2023/06/03 08:58:30;;;;;;;0.80;0.47;;;;;;;35.94;25.64;100760.09;7395655;19;20014;-83
2023/06/03 09:01:01;;;;;;;4.55;0.52;;;;;;;36.19;25.98;100771.81;7394592;19;20366;-83
2023/06/03 09:03:29;;;;;;;0.57;0.30;;;;;;;36.41;26.40;100773.09;7394447;19;20018;-82
2023/06/03 09:05:56;;;;;;;3.75;0.68;;;;;;;36.67;25.02;100771.75;7395794;19;20018;-82
2023/06/03 09:08:23;;;;;;;5.20;0.57;;;;;;;36.86;24.65;100777.19;7389725;19;20022;-82
2023/06/03 09:10:50;;;;;;;0.60;0.43;;;;;;;37.10;25.00;100766.94;7393483;19;20006;-82
2023/06/03 09:13:17;;;;;;;3.40;0.40;;;;;;;37.27;24.69;100767.84;7394754;19;20036;-83
2023/06/03 09:15:45;;;;;;;1.83;0.70;;;;;;;37.16;23.98;100758.59;7393702;19;20339;-82
2023/06/03 09:18:13;;;;;;;1.75;0.40;;;;;;;37.15;24.93;100767.94;7390921;19;20030;-80
2023/06/03 09:20:39;;;;;;;0.57;0.50;;;;;;;37.27;24.58;100768.59;7393298;19;20022;-82
2023/06/03 09:23:11;;;;;;;1.38;0.55;;;;;;;37.38;23.95;100761.22;7389770;19;20018;-82
2023/06/03 09:25:37;;;;;;;2.53;1.15;;;;;;;37.46;23.93;100768.22;7388874;19;20105;-81
2023/06/03 09:28:04;;;;;;;0.22;0.20;;;;;;;37.52;23.56;100764.88;7394510;19;20111;-82
2023/06/03 09:30:33;;;;;;;1.60;0.90;;;;;;;37.37;23.23;100757.56;7396291;19;20035;-82
2023/06/03 09:32:59;;;;;;;0.25;0.20;;;;;;;37.60;24.04;100759.50;7391134;19;20506;-83
2023/06/03 09:35:25;;;;;;;4.28;0.50;;;;;;;37.83;24.54;100759.31;7394556;19;20025;-83
2023/06/03 09:38:04;;;;;;;2.28;0.47;;;;;;;37.69;23.86;100762.19;7394202;19;20017;-83
2023/06/03 09:40:32;;;;;;;1.80;0.90;;;;;;;37.78;23.82;100757.53;7390162;19;20010;-83
2023/06/03 09:42:58;;;;;;;1.88;0.88;;;;;;;38.09;23.58;100757.75;7392624;19;20021;-81
2023/06/03 09:45:33;;;;;;;1.83;0.80;;;;;;;38.03;23.12;100760.34;7391017;19;20086;-82
2023/06/03 09:48:00;;;;;;;0.70;0.47;;;;;;;38.13;22.77;100763.00;7392503;19;20019;-83
2023/06/03 09:50:28;;;;;;;1.55;0.45;;;;;;;38.02;23.38;100753.00;7391934;19;20020;-82
2023/06/03 09:52:55;;;;;;;4.93;0.45;;;;;;;37.96;23.96;100752.72;7392270;19;20014;-83
2023/06/03 09:55:29;;;;;;;3.30;0.30;;;;;;;38.10;24.11;100752.69;7388770;19;20023;-83
2023/06/03 09:58:02;;;;;;;1.45;0.22;;;;;;;38.07;23.32;100751.06;7392333;19;20126;-82
2023/06/03 10:00:31;;;;;;;4.43;0.20;;;;;;;38.23;23.21;100749.72;7390255;19;20477;-83
2023/06/03 10:03:09;;;;;;;5.05;0.63;;;;;;;38.24;23.20;100754.16;7391331;19;20050;-83
2023/06/03 10:05:36;;;;;;;2.58;0.35;;;;;;;38.33;23.18;100752.44;7395053;19;20021;-83
2023/06/03 10:08:06;;;;;;;1.77;0.10;;;;;;;38.00;23.33;100749.25;7387796;19;20015;-83
2023/06/03 10:10:33;;;;;;;0.77;0.25;;;;;;;38.27;23.12;100755.03;7389520;19;20474;-82
2023/06/03 10:13:23;;;;;;;0.10;0.05;;;;;;;38.64;23.28;100741.59;7390879;19;20026;-82
2023/06/03 10:15:52;;;;;;;0.82;0.20;;;;;;;38.43;23.98;100744.94;7389987;19;20020;-82
2023/06/03 10:46:15;;;;;;;0.10;0.10;;;;;;;40.05;21.47;100730.66;7389954;19;20018;-60
2023/06/03 10:48:45;;;;;;;0.40;0.28;;;;;;;40.07;21.11;100739.50;7393554;19;20015;-60
2023/06/03 10:51:20;;;;;;;0.50;0.10;;;;;;;40.08;22.40;100735.19;7387399;19;20419;-60
2023/06/03 10:54:24;;;;;;;0.10;0.05;;;;;;;40.47;21.72;100730.97;7390785;19;20243;-60
2023/06/03 10:57:03;;;;;;;1.15;0.50;;;;;;;40.16;21.00;100731.06;7391109;19;20006;-60
2023/06/03 10:59:40;;;;;;;0.40;0.10;;;;;;;40.34;21.38;100734.78;7393037;19;20430;-60
2023/06/03 11:02:07;;;;;;;2.05;0.20;;;;;;;40.30;21.52;100731.69;7390893;19;20451;-60
2023/06/03 11:04:36;;;;;;;0.45;0.30;;;;;;;40.40;21.11;100735.00;7393645;19;20015;-60
2023/06/03 11:07:04;;;;;;;0.85;0.10;;;;;;;40.30;21.18;100738.28;7397062;19;20014;-60
2023/06/03 11:09:34;;;;;;;1.35;0.10;;;;;;;40.14;20.57;100723.00;7400922;19;20010;-60
2023/06/03 11:12:15;;;;;;;0.20;0.13;;;;;;;40.26;20.91;100731.53;7394635;19;20102;-61
2023/06/03 11:14:52;;;;;;;2.15;0.20;;;;;;;40.45;21.13;100727.97;7397594;19;20010;-63
2023/06/03 11:17:20;;;;;;;2.45;0.60;;;;;;;40.30;20.85;100738.28;7402197;19;20014;-62
2023/06/03 11:19:52;;;;;;;6.35;0.45;;;;;;;40.19;20.76;100732.69;7401397;19;20014;-63
2023/06/03 11:22:27;;;;;;;0.40;0.30;;;;;;;39.69;21.23;100732.00;7397073;19;20018;-63
2023/06/03 11:24:55;;;;;;;2.75;0.60;;;;;;;40.06;21.16;100726.34;7396680;19;20483;-63
2023/06/03 11:27:23;;;;;;;0.22;0.20;;;;;;;40.38;20.80;100729.84;7398632;19;20018;-66
2023/06/03 11:30:07;;;;;;;3.63;0.40;;;;;;;40.03;21.08;100726.91;7400995;19;20015;-64
2023/06/03 11:32:35;;;;;;;3.13;0.20;;;;;;;39.76;21.02;100738.84;7397333;19;20514;-64
2023/06/03 11:35:05;;;;;;;7.22;0.52;;;;;;;39.40;20.40;100726.25;7399489;19;20022;-63
2023/06/03 11:37:48;;;;;;;0.10;0.00;;;;;;;39.18;21.18;100725.28;7396766;19;20010;-65
2023/06/03 11:40:44;;;;;;;1.05;0.50;;;;;;;39.39;21.82;100718.94;7397551;19;20003;-64
2023/06/03 11:43:11;;;;;;;2.28;0.20;;;;;;;39.49;21.36;100728.13;7396930;19;20489;-64
2023/06/03 11:45:38;;;;;;;1.50;0.50;;;;;;;39.58;21.95;100724.19;7397330;19;20017;-64
2023/06/03 11:48:37;;;;;;;1.27;0.57;;;;;;;39.69;21.19;100717.41;7399698;19;20423;-61
2023/06/03 11:51:05;;;;;;;2.78;0.13;;;;;;;39.85;20.85;100712.25;7395739;19;20459;-60
2023/06/03 11:53:36;;;;;;;0.28;0.08;;;;;;;40.01;21.27;100710.06;7397704;19;20018;-64
2023/06/03 11:56:11;;;;;;;0.63;0.10;;;;;;;39.90;20.93;100708.09;7395521;19;20363;-64
2023/06/03 11:58:42;;;;;;;0.50;0.20;;;;;;;40.16;20.69;100710.66;7401068;19;20025;-65
2023/06/03 12:01:22;;;;;;;1.77;0.57;;;;;;;40.23;21.00;100703.66;7396576;19;20015;-64
2023/06/03 12:04:02;;;;;;;1.23;0.40;;;;;;;40.49;20.78;100696.75;7396576;19;20002;-63
2023/06/03 12:06:36;;;;;;;0.57;0.30;;;;;;;40.47;20.75;100701.75;7398012;19;20031;-64
2023/06/03 12:09:10;;;;;;;1.73;0.90;;;;;;;40.51;20.66;100699.75;7397974;19;20044;-64